This is the latest recevied weather packets stored in our database for station/object SQ6RR-12. If no packets are shown the sender has not sent any weather packets the latest 10 day(s).
| Time | Temp. | Humidity | Pressure | Rain* | Wind** | Luminosity | Snow |
|---|---|---|---|---|---|---|---|
| 1777792807 | 21.67° C | 34% | 1019.4 hPa | 0 mm | - | - | - |
| 1777792542 | 21.11° C | 37% | 1019.4 hPa | 0 mm | - | - | - |
| 1777792262 | 21.67° C | 36% | 1019.4 hPa | 0 mm | - | - | - |
| 1777791997 | 21.67° C | 34% | 1019.4 hPa | 0 mm | - | - | - |
| 1777791730 | 21.67° C | 36% | 1019.4 hPa | 0 mm | - | - | - |
| 1777791452 | 21.67° C | 37% | 1019.5 hPa | 0 mm | - | - | - |
| 1777791170 | 21.11° C | 39% | 1019.5 hPa | 0 mm | - | - | - |
| 1777790901 | 21.11° C | 38% | 1019.5 hPa | 0 mm | - | - | - |
| 1777790642 | 21.11° C | 36% | 1019.5 hPa | 0 mm | - | - | - |
| 1777790371 | 20.56° C | 39% | 1019.5 hPa | 0 mm | - | - | - |
| 1777790104 | 20° C | 42% | 1019.5 hPa | 0 mm | - | - | - |
| 1777789842 | 20° C | 38% | 1019.4 hPa | 0 mm | - | - | - |
| 1777789572 | 20° C | 40% | 1019.4 hPa | 0 mm | - | - | - |
| 1777789302 | 20° C | 42% | 1019.3 hPa | 0 mm | - | - | - |
| 1777789042 | 20° C | 44% | 1019.3 hPa | 0 mm | - | - | - |
| 1777788774 | 19.44° C | 47% | 1019.3 hPa | 0 mm | - | - | - |
| 1777788502 | 19.44° C | 51% | 1019.3 hPa | 0 mm | - | - | - |
| 1777788242 | 18.33° C | 54% | 1019.3 hPa | 0 mm | - | - | - |
| 1777787954 | 17.78° C | 50% | 1019.3 hPa | 0 mm | - | - | - |
| 1777787695 | 16.11° C | 61% | 1019.3 hPa | 0 mm | - | - | - |
| 1777787437 | 12.78° C | 77% | 1019.2 hPa | 0 mm | - | - | - |
| 1777787172 | 12.22° C | 81% | 1019.3 hPa | 0 mm | - | - | - |
| 1777786917 | 12.22° C | 82% | 1019.2 hPa | 0 mm | - | - | - |
| 1777786632 | 12.22° C | 88% | 1019.2 hPa | 0 mm | - | - | - |
| 1777786372 | 11.11° C | 90% | 1019.2 hPa | 0 mm | - | - | - |
* Rain latest hour (hover to see other rain measurements)
** Current wind speed in m/s (hover to see current wind gust speed)